Time;durP1;ratioP1;P1;durP2;ratioP2;P2;SDS_P1;SDS_P2;PMS_P1;PMS_P2;Temp;Humidity;BMP_temperature;BMP_pressure;BME280_temperature;BME280_humidity;BME280_pressure;Samples;Min_cycle;Max_cycle;Signal;HPM_P1;HPM_P2
2022/05/21 00:00:06;;;;;;;0.10;0.10;;;;;;;;;;4922162;29;20066;-95
2022/05/21 00:02:32;;;;;;;0.10;0.10;;;;;;;;;;4907101;29;20105;-96
2022/05/21 00:04:59;;;;;;;0.10;0.10;;;;;;;;;;4922662;29;20111;-95
2022/05/21 00:07:27;;;;;;;0.10;0.10;;;;;;;;;;4922152;29;20047;-96
2022/05/21 00:09:52;;;;;;;0.10;0.10;;;;;;;;;;4907382;29;20174;-95
2022/05/21 00:12:34;;;;;;;;;;;;;;;;;;;;;
2022/05/21 00:15:46;;;;;;;;;;;;;;;;;;;;;
2022/05/21 00:18:12;;;;;;;0.10;0.10;;;;;;;;;;4938896;29;20432;-96
2022/05/21 00:20:47;;;;;;;0.10;0.10;;;;;;;;;;4906370;29;20069;-96
2022/05/21 00:23:27;;;;;;;0.10;0.10;;;;;;;;;;4907727;29;20047;-96
2022/05/21 00:25:59;;;;;;;0.10;0.10;;;;;;;;;;4922170;29;20081;-95
2022/05/21 00:28:25;;;;;;;0.10;0.10;;;;;;;;;;4922230;29;20042;-95
2022/05/21 00:30:51;;;;;;;0.10;0.10;;;;;;;;;;4906527;29;20451;-95
2022/05/21 00:33:17;;;;;;;0.10;0.10;;;;;;;;;;4922505;29;20110;-95
2022/05/21 00:35:44;;;;;;;0.10;0.10;;;;;;;;;;4922653;29;20042;-96
2022/05/21 00:38:10;;;;;;;0.15;0.15;;;;;;;;;;4938860;29;20047;-95
2022/05/21 00:40:37;;;;;;;0.10;0.10;;;;;;;;;;4907275;29;20039;-94
2022/05/21 00:43:03;;;;;;;0.10;0.10;;;;;;;;;;4922088;29;20086;-95
2022/05/21 00:45:30;;;;;;;0.10;0.10;;;;;;;;;;4922628;29;20087;-94
2022/05/21 00:47:57;;;;;;;0.10;0.10;;;;;;;;;;4922035;29;20074;-94
2022/05/21 00:50:23;;;;;;;0.10;0.10;;;;;;;;;;4923124;29;20090;-94
2022/05/21 00:52:50;;;;;;;0.10;0.10;;;;;;;;;;4922897;29;20082;-93
2022/05/21 00:55:19;;;;;;;0.10;0.10;;;;;;;;;;4922873;29;20094;-93
2022/05/21 00:57:46;;;;;;;0.10;0.10;;;;;;;;;;4926032;29;20098;-94
2022/05/21 01:00:17;;;;;;;0.10;0.10;;;;;;;;;;4925568;29;20047;-94
2022/05/21 01:02:48;;;;;;;0.10;0.10;;;;;;;;;;4909106;29;20067;-93
2022/05/21 01:05:15;;;;;;;0.10;0.10;;;;;;;;;;4925805;29;20110;-94
2022/05/21 01:07:41;;;;;;;0.10;0.10;;;;;;;;;;4924272;29;20443;-94
2022/05/21 01:10:08;;;;;;;0.10;0.10;;;;;;;;;;4925563;29;20102;-95
2022/05/21 01:12:35;;;;;;;0.20;0.20;;;;;;;;;;4925331;29;20047;-94
2022/05/21 01:15:02;;;;;;;0.10;0.10;;;;;;;;;;4909879;29;20097;-94
2022/05/21 01:17:28;;;;;;;0.10;0.10;;;;;;;;;;4925110;29;20042;-95
2022/05/21 01:19:55;;;;;;;0.10;0.10;;;;;;;;;;4925445;29;20043;-95
2022/05/21 01:22:25;;;;;;;0.13;0.13;;;;;;;;;;4924756;29;20065;-94
2022/05/21 01:24:51;;;;;;;0.15;0.15;;;;;;;;;;4925263;29;20039;-94
2022/05/21 01:27:19;;;;;;;0.10;0.10;;;;;;;;;;4925296;29;20092;-95
2022/05/21 01:29:45;;;;;;;0.10;0.10;;;;;;;;;;4924864;29;20047;-94
2022/05/21 01:32:16;;;;;;;0.10;0.10;;;;;;;;;;4924995;29;20043;-94
2022/05/21 01:34:42;;;;;;;0.10;0.10;;;;;;;;;;4925035;29;20063;-96
2022/05/21 01:37:08;;;;;;;0.10;0.10;;;;;;;;;;4925117;29;20046;-96
2022/05/21 01:39:34;;;;;;;0.10;0.10;;;;;;;;;;4924920;29;20043;-96
2022/05/21 01:42:00;;;;;;;0.30;0.30;;;;;;;;;;4925223;29;20043;-96
2022/05/21 01:44:38;;;;;;;0.10;0.10;;;;;;;;;;4925344;29;20043;-96
2022/05/21 01:47:14;;;;;;;0.30;0.30;;;;;;;;;;4910737;29;20039;-95
2022/05/21 01:49:40;;;;;;;0.10;0.10;;;;;;;;;;4925331;29;20042;-96
2022/05/21 01:52:06;;;;;;;0.10;0.10;;;;;;;;;;4925039;29;20046;-94
2022/05/21 01:54:33;;;;;;;0.10;0.10;;;;;;;;;;4924449;29;20126;-96
2022/05/21 01:56:59;;;;;;;0.20;0.20;;;;;;;;;;4910198;29;20538;-93
2022/05/21 01:59:29;;;;;;;0.20;0.20;;;;;;;;;;4925489;29;20050;-96
2022/05/21 02:01:55;;;;;;;0.10;0.10;;;;;;;;;;4909914;28;20043;-94
2022/05/21 02:04:21;;;;;;;0.20;0.20;;;;;;;;;;4924603;29;20047;-94
2022/05/21 02:06:48;;;;;;;0.20;0.20;;;;;;;;;;4923068;29;20040;-96
2022/05/21 02:09:16;;;;;;;0.10;0.10;;;;;;;;;;4924584;29;20042;-96
2022/05/21 02:11:45;;;;;;;0.10;0.10;;;;;;;;;;4925890;28;20046;-94
2022/05/21 02:14:11;;;;;;;0.20;0.20;;;;;;;;;;4924485;29;20039;-94
2022/05/21 02:16:37;;;;;;;0.10;0.10;;;;;;;;;;4908780;29;20043;-93
2022/05/21 02:19:05;;;;;;;0.22;0.22;;;;;;;;;;4924550;29;20047;-93
2022/05/21 02:21:31;;;;;;;0.10;0.10;;;;;;;;;;4908737;29;20066;-96
2022/05/21 02:23:58;;;;;;;0.10;0.10;;;;;;;;;;4923904;29;20143;-96
2022/05/21 02:26:53;;;;;;;0.10;0.10;;;;;;;;;;4924905;29;20043;-96
2022/05/21 02:29:23;;;;;;;0.20;0.20;;;;;;;;;;4921505;29;20051;-95
2022/05/21 02:31:51;;;;;;;0.13;0.13;;;;;;;;;;4927577;28;20410;-95
2022/05/21 02:34:17;;;;;;;0.10;0.10;;;;;;;;;;4923547;29;20506;-94
2022/05/21 02:39:47;;;;;;;0.28;0.28;;;;;;;;;;4871294;29;20654;-93
2022/05/21 02:44:58;;;;;;;0.10;0.10;;;;;;;;;;4903079;29;20139;-94
2022/05/21 02:47:25;;;;;;;0.20;0.20;;;;;;;;;;4923440;29;20035;-93
2022/05/21 02:49:51;;;;;;;0.10;0.10;;;;;;;;;;4923630;29;20086;-95
2022/05/21 02:52:18;;;;;;;0.52;0.40;;;;;;;;;;4923353;29;20038;-95
2022/05/21 02:54:44;;;;;;;0.20;0.20;;;;;;;;;;4923531;29;20073;-94
2022/05/21 02:57:10;;;;;;;0.10;0.10;;;;;;;;;;4923159;29;20054;-94
2022/05/21 02:59:38;;;;;;;0.10;0.10;;;;;;;;;;4923196;29;20038;-94
2022/05/21 03:02:04;;;;;;;0.80;0.30;;;;;;;;;;4907106;29;20099;-95
2022/05/21 03:04:30;;;;;;;0.20;0.20;;;;;;;;;;4923453;29;20054;-94
2022/05/21 03:06:57;;;;;;;0.32;0.17;;;;;;;;;;4922561;29;20135;-93
2022/05/21 03:12:09;;;;;;;0.20;0.20;;;;;;;;;;4938391;29;20134;-93
2022/05/21 03:14:35;;;;;;;0.43;0.38;;;;;;;;;;4923442;29;20036;-94
2022/05/21 03:17:01;;;;;;;0.10;0.10;;;;;;;;;;4922924;29;20050;-95
2022/05/21 03:19:28;;;;;;;0.10;0.10;;;;;;;;;;4923289;29;20038;-95
2022/05/21 03:21:54;;;;;;;0.10;0.10;;;;;;;;;;4922811;28;20189;-96
2022/05/21 03:24:20;;;;;;;0.22;0.22;;;;;;;;;;4923047;29;20059;-95
2022/05/21 03:26:46;;;;;;;0.35;0.35;;;;;;;;;;4923161;29;20169;-94
2022/05/21 03:29:12;;;;;;;1.45;1.45;;;;;;;;;;4923162;29;20398;-93
2022/05/21 03:31:38;;;;;;;0.20;0.20;;;;;;;;;;4922412;28;20043;-94
2022/05/21 03:34:04;;;;;;;0.10;0.10;;;;;;;;;;4922923;29;20035;-94
2022/05/21 03:36:30;;;;;;;0.20;0.20;;;;;;;;;;4923109;29;20039;-96
2022/05/21 03:38:57;;;;;;;0.20;0.20;;;;;;;;;;4922820;29;20179;-95
2022/05/21 03:41:23;;;;;;;0.30;0.30;;;;;;;;;;4922650;29;20051;-94
2022/05/21 03:44:00;;;;;;;;;;;;;;;;;;;;;
2022/05/21 03:46:28;;;;;;;0.20;0.20;;;;;;;;;;4939781;29;20043;-96
2022/05/21 03:49:04;;;;;;;0.10;0.10;;;;;;;;;;4923922;29;20047;-96
2022/05/21 03:51:38;;;;;;;0.10;0.10;;;;;;;;;;4908226;29;20027;-96
2022/05/21 03:54:04;;;;;;;2.72;0.47;;;;;;;;;;4922988;29;20102;-93
2022/05/21 03:56:30;;;;;;;0.10;0.10;;;;;;;;;;4922616;29;20039;-93
2022/05/21 03:58:56;;;;;;;0.10;0.10;;;;;;;;;;4922692;29;20051;-93
2022/05/21 04:01:22;;;;;;;0.10;0.10;;;;;;;;;;4922346;29;20050;-94
2022/05/21 04:03:50;;;;;;;0.15;0.15;;;;;;;;;;4922559;29;20377;-94
2022/05/21 04:06:16;;;;;;;0.10;0.10;;;;;;;;;;4922100;29;20044;-94
2022/05/21 04:08:42;;;;;;;0.10;0.10;;;;;;;;;;4922948;29;20043;-94
2022/05/21 04:11:08;;;;;;;0.20;0.20;;;;;;;;;;4922547;29;20039;-93
2022/05/21 04:13:34;;;;;;;0.30;0.20;;;;;;;;;;4922647;29;20044;-93
2022/05/21 04:16:00;;;;;;;0.10;0.10;;;;;;;;;;4922133;29;20185;-93
2022/05/21 04:18:26;;;;;;;0.10;0.10;;;;;;;;;;4922048;29;20039;-94
2022/05/21 04:20:52;;;;;;;0.30;0.30;;;;;;;;;;4922123;29;20058;-93
2022/05/21 04:23:18;;;;;;;0.65;0.45;;;;;;;;;;4922008;29;20046;-95
2022/05/21 04:25:44;;;;;;;0.13;0.13;;;;;;;;;;4922786;29;20038;-96
2022/05/21 04:28:14;;;;;;;0.30;0.30;;;;;;;;;;4923074;29;20043;-96
2022/05/21 04:30:53;;;;;;;0.15;0.15;;;;;;;;;;4959532;28;20051;-96
2022/05/21 04:33:19;;;;;;;0.20;0.20;;;;;;;;;;4929742;28;20107;-96
2022/05/21 04:38:44;;;;;;;0.10;0.10;;;;;;;;;;4966027;28;20078;-96
2022/05/21 04:44:23;;;;;;;0.20;0.20;;;;;;;;;;4936536;28;20042;-96
2022/05/21 04:46:52;;;;;;;0.20;0.20;;;;;;;;;;4929963;28;20042;-96
2022/05/21 04:49:21;;;;;;;0.10;0.10;;;;;;;;;;4932220;28;20039;-96
2022/05/21 04:52:46;;;;;;;0.10;0.10;;;;;;;;;;4950532;28;20046;-96
2022/05/21 04:55:12;;;;;;;1.55;1.48;;;;;;;;;;4944544;28;20081;-95
2022/05/21 04:57:38;;;;;;;0.10;0.10;;;;;;;;;;4928812;28;20046;-94
2022/05/21 05:00:05;;;;;;;0.10;0.10;;;;;;;;;;4928986;28;20133;-95
2022/05/21 05:02:31;;;;;;;0.10;0.10;;;;;;;;;;4929006;28;20672;-94
2022/05/21 05:04:57;;;;;;;0.10;0.10;;;;;;;;;;4928813;28;20085;-95
2022/05/21 05:07:24;;;;;;;0.15;0.15;;;;;;;;;;4928523;28;20046;-95
2022/05/21 05:09:49;;;;;;;0.32;0.32;;;;;;;;;;4929761;28;20096;-94
2022/05/21 05:12:16;;;;;;;0.10;0.10;;;;;;;;;;4928620;28;20046;-94
2022/05/21 05:14:42;;;;;;;0.75;0.75;;;;;;;;;;4929546;28;20046;-95
2022/05/21 05:17:10;;;;;;;0.10;0.10;;;;;;;;;;4928511;28;20043;-95
2022/05/21 05:19:37;;;;;;;0.10;0.10;;;;;;;;;;4928536;28;20051;-95
2022/05/21 05:22:03;;;;;;;0.10;0.10;;;;;;;;;;4928319;28;20053;-94
2022/05/21 05:24:29;;;;;;;0.10;0.10;;;;;;;;;;4927147;28;20050;-95
2022/05/21 05:26:55;;;;;;;0.10;0.10;;;;;;;;;;4928183;28;20066;-96
2022/05/21 05:29:22;;;;;;;0.20;0.20;;;;;;;;;;4928580;28;20059;-94
2022/05/21 05:31:51;;;;;;;0.13;0.13;;;;;;;;;;4938727;28;20051;-96
2022/05/21 05:34:17;;;;;;;0.10;0.10;;;;;;;;;;4928949;28;20043;-96
2022/05/21 05:43:01;;;;;;;0.10;0.10;;;;;;;;;;5019836;23;20076;-96
2022/05/21 06:03:10;;;;;;;0.10;0.10;;;;;;;;;;5119308;23;20315;-93
2022/05/21 06:05:36;;;;;;;0.17;0.17;;;;;;;;;;4927283;28;20046;-94
2022/05/21 06:08:03;;;;;;;0.52;0.32;;;;;;;;;;4927437;28;20129;-96
2022/05/21 06:10:30;;;;;;;0.10;0.10;;;;;;;;;;4927566;28;20127;-94
2022/05/21 06:12:56;;;;;;;0.10;0.10;;;;;;;;;;4944199;28;20105;-96
2022/05/21 06:15:22;;;;;;;0.28;0.28;;;;;;;;;;4927662;28;20081;-95
2022/05/21 06:17:50;;;;;;;0.17;0.17;;;;;;;;;;4927264;28;20054;-95
2022/05/21 06:20:16;;;;;;;0.20;0.20;;;;;;;;;;4926736;28;20427;-94
2022/05/21 06:22:42;;;;;;;0.10;0.10;;;;;;;;;;4927127;28;20077;-94
2022/05/21 06:25:21;;;;;;;0.28;0.28;;;;;;;;;;4927720;28;20049;-95
2022/05/21 06:27:47;;;;;;;0.10;0.10;;;;;;;;;;5039146;23;20447;-96
2022/05/21 06:36:11;;;;;;;0.10;0.10;;;;;;;;;;4941178;28;20047;-94
2022/05/21 06:42:02;;;;;;;0.17;0.17;;;;;;;;;;4820139;29;20046;-96
2022/05/21 06:44:30;;;;;;;0.10;0.10;;;;;;;;;;4877719;29;20072;-96
2022/05/21 07:08:47;;;;;;;0.90;0.73;;;;;;;;;;4925496;29;20048;-94
2022/05/21 07:13:49;;;;;;;0.20;0.20;;;;;;;;;;5028803;23;20047;-96
2022/05/21 07:16:15;;;;;;;0.10;0.10;;;;;;;;;;4926316;29;20058;-94
2022/05/21 07:18:41;;;;;;;0.10;0.10;;;;;;;;;;4908345;29;20054;-96
2022/05/21 07:21:10;;;;;;;0.10;0.10;;;;;;;;;;4908793;29;20047;-95
2022/05/21 07:23:36;;;;;;;0.10;0.10;;;;;;;;;;4904265;29;20044;-93
2022/05/21 07:26:02;;;;;;;0.10;0.10;;;;;;;;;;4904046;29;20079;-93
2022/05/21 07:28:28;;;;;;;0.20;0.20;;;;;;;;;;4903853;29;20090;-93
2022/05/21 07:30:55;;;;;;;0.10;0.10;;;;;;;;;;4903749;29;20048;-94
2022/05/21 07:33:22;;;;;;;0.20;0.20;;;;;;;;;;4903816;29;20138;-93
2022/05/21 07:35:47;;;;;;;0.20;0.20;;;;;;;;;;4904128;29;20040;-92
2022/05/21 07:38:17;;;;;;;0.10;0.10;;;;;;;;;;4904116;29;20142;-93
2022/05/21 07:40:44;;;;;;;0.30;0.30;;;;;;;;;;4904416;29;20102;-93
2022/05/21 07:43:14;;;;;;;0.10;0.10;;;;;;;;;;4904004;29;20055;-93
2022/05/21 07:45:41;;;;;;;0.10;0.10;;;;;;;;;;4904011;29;20540;-94
2022/05/21 07:48:10;;;;;;;0.10;0.10;;;;;;;;;;4903622;29;20555;-93
2022/05/21 07:50:36;;;;;;;0.10;0.10;;;;;;;;;;4903783;29;20036;-92
2022/05/21 07:53:03;;;;;;;0.10;0.10;;;;;;;;;;4903523;29;20048;-93
2022/05/21 07:55:30;;;;;;;0.20;0.20;;;;;;;;;;4903262;29;20086;-93
2022/05/21 07:57:57;;;;;;;0.15;0.15;;;;;;;;;;4903969;29;20471;-94
2022/05/21 08:00:23;;;;;;;0.10;0.10;;;;;;;;;;4903783;29;20142;-94
2022/05/21 08:02:49;;;;;;;0.28;0.28;;;;;;;;;;4904418;29;20436;-94
2022/05/21 08:05:15;;;;;;;0.40;0.20;;;;;;;;;;4904365;29;20051;-94
2022/05/21 08:07:43;;;;;;;0.30;0.30;;;;;;;;;;4907306;29;20051;-96
2022/05/21 08:10:09;;;;;;;0.30;0.30;;;;;;;;;;4908220;29;20046;-95
2022/05/21 08:12:36;;;;;;;0.17;0.17;;;;;;;;;;4908739;29;20050;-94
2022/05/21 08:15:05;;;;;;;0.35;0.22;;;;;;;;;;4907512;29;20049;-94
2022/05/21 08:17:31;;;;;;;0.98;0.40;;;;;;;;;;4908679;29;20050;-96
2022/05/21 08:20:00;;;;;;;0.17;0.17;;;;;;;;;;4908139;29;20048;-95
2022/05/21 08:28:12;;;;;;;0.38;0.38;;;;;;;;;;4910296;29;20063;-96
2022/05/21 08:30:45;;;;;;;0.20;0.20;;;;;;;;;;4924777;29;20075;-96
2022/05/21 08:33:13;;;;;;;0.17;0.17;;;;;;;;;;4909626;29;20074;-96
2022/05/21 08:39:16;;;;;;;0.15;0.15;;;;;;;;;;4823437;29;20046;-96
2022/05/21 08:52:42;;;;;;;0.22;0.22;;;;;;;;;;5763548;23;20093;-95
2022/05/21 08:55:09;;;;;;;0.20;0.20;;;;;;;;;;4929058;28;20054;-95
2022/05/21 08:57:45;;;;;;;0.28;0.28;;;;;;;;;;4929245;28;20039;-94
2022/05/21 09:00:16;;;;;;;0.10;0.10;;;;;;;;;;4929582;28;20074;-95
2022/05/21 09:02:42;;;;;;;0.22;0.22;;;;;;;;;;4925960;29;20035;-96
2022/05/21 09:05:09;;;;;;;0.20;0.20;;;;;;;;;;4925644;29;20138;-94
2022/05/21 09:07:54;;;;;;;0.40;0.20;;;;;;;;;;4925745;29;20154;-95
2022/05/21 09:10:43;;;;;;;3.63;0.32;;;;;;;;;;4925972;29;20046;-96
2022/05/21 09:13:20;;;;;;;0.20;0.20;;;;;;;;;;4925170;29;20075;-96
2022/05/21 09:18:31;;;;;;;0.20;0.20;;;;;;;;;;4927386;29;20047;-96
2022/05/21 09:20:59;;;;;;;0.10;0.10;;;;;;;;;;4925494;29;20040;-96
2022/05/21 09:23:26;;;;;;;0.38;0.38;;;;;;;;;;4925466;29;20043;-96
2022/05/21 09:26:08;;;;;;;0.20;0.20;;;;;;;;;;4941893;29;20482;-94
2022/05/21 09:28:38;;;;;;;0.10;0.10;;;;;;;;;;4928713;29;20049;-94
2022/05/21 09:31:05;;;;;;;0.10;0.10;;;;;;;;;;4925957;29;20222;-93
2022/05/21 09:33:34;;;;;;;0.30;0.30;;;;;;;;;;4925528;29;20070;-96
2022/05/21 09:36:03;;;;;;;0.20;0.20;;;;;;;;;;4924242;29;20039;-93
2022/05/21 09:38:33;;;;;;;0.10;0.10;;;;;;;;;;4925866;29;20039;-95
2022/05/21 09:41:12;;;;;;;0.10;0.10;;;;;;;;;;4925228;29;20089;-95
2022/05/21 09:46:28;;;;;;;0.30;0.30;;;;;;;;;;4926345;29;20054;-95
2022/05/21 09:49:13;;;;;;;0.90;0.90;;;;;;;;;;4924606;29;20039;-95
2022/05/21 09:51:40;;;;;;;0.20;0.20;;;;;;;;;;4924565;28;20440;-95
2022/05/21 09:54:26;;;;;;;0.10;0.10;;;;;;;;;;4924633;29;20090;-94
2022/05/21 09:56:57;;;;;;;1.23;0.28;;;;;;;;;;4943432;29;20118;-95
2022/05/21 09:59:26;;;;;;;0.20;0.20;;;;;;;;;;4927391;29;20061;-95
2022/05/21 10:01:54;;;;;;;1.35;0.75;;;;;;;;;;4924778;29;20043;-96
2022/05/21 10:04:39;;;;;;;0.10;0.10;;;;;;;;;;4924850;29;20143;-94
2022/05/21 10:11:03;;;;;;;0.20;0.20;;;;;;;;;;4884677;29;20055;-96
2022/05/21 10:13:38;;;;;;;0.10;0.10;;;;;;;;;;4922456;29;20051;-96
2022/05/21 10:16:26;;;;;;;0.10;0.10;;;;;;;;;;4911330;29;20041;-96
2022/05/21 10:18:57;;;;;;;0.20;0.20;;;;;;;;;;4940953;29;20074;-94
2022/05/21 10:21:42;;;;;;;0.45;0.40;;;;;;;;;;4907396;29;20047;-96
2022/05/21 10:27:46;;;;;;;0.10;0.10;;;;;;;;;;4939844;28;20051;-95
2022/05/21 10:30:48;;;;;;;0.10;0.10;;;;;;;;;;4955616;29;20078;-93
2022/05/21 10:39:52;;;;;;;0.10;0.10;;;;;;;;;;4963598;29;20141;-94
2022/05/21 10:42:37;;;;;;;0.10;0.10;;;;;;;;;;4929262;29;20653;-95
2022/05/21 10:45:09;;;;;;;0.20;0.20;;;;;;;;;;4920563;29;20051;-95
2022/05/21 10:47:54;;;;;;;0.10;0.10;;;;;;;;;;4920043;29;20047;-94
2022/05/21 10:50:23;;;;;;;0.43;0.43;;;;;;;;;;4920574;29;20084;-95
2022/05/21 10:53:03;;;;;;;0.20;0.20;;;;;;;;;;4920784;29;20039;-94
2022/05/21 10:55:36;;;;;;;0.10;0.10;;;;;;;;;;4904784;29;20075;-95
2022/05/21 10:58:14;;;;;;;0.10;0.10;;;;;;;;;;4890623;29;20043;-96
2022/05/21 11:00:46;;;;;;;0.10;0.10;;;;;;;;;;4907416;29;20051;-94
2022/05/21 11:03:12;;;;;;;0.10;0.10;;;;;;;;;;4888645;29;20047;-94
2022/05/21 11:05:40;;;;;;;0.10;0.10;;;;;;;;;;4919984;29;20079;-94
2022/05/21 11:08:24;;;;;;;0.10;0.10;;;;;;;;;;4904907;29;20138;-94
2022/05/21 11:10:54;;;;;;;0.10;0.10;;;;;;;;;;4904933;29;20043;-95
2022/05/21 11:13:21;;;;;;;0.20;0.20;;;;;;;;;;4890759;29;20112;-95
2022/05/21 11:15:54;;;;;;;0.20;0.20;;;;;;;;;;4890518;29;20583;-94
2022/05/21 11:18:22;;;;;;;0.20;0.20;;;;;;;;;;4905931;29;20040;-93
2022/05/21 11:20:54;;;;;;;0.57;0.57;;;;;;;;;;4888713;29;20103;-93
2022/05/21 11:23:21;;;;;;;0.10;0.10;;;;;;;;;;4888713;29;20101;-92
2022/05/21 11:25:49;;;;;;;0.10;0.10;;;;;;;;;;4903709;29;20043;-93
2022/05/21 11:28:35;;;;;;;0.10;0.10;;;;;;;;;;4888310;29;20044;-92
2022/05/21 11:37:20;;;;;;;0.10;0.10;;;;;;;;;;4888839;29;20043;-93
2022/05/21 11:39:42;;;;;;;0.45;0.20;;;;;;;;;;4921944;29;20043;-94
2022/05/21 11:42:08;;;;;;;0.10;0.10;;;;;;;;;;4888091;29;20134;-92
2022/05/21 11:44:55;;;;;;;5.18;0.85;;;;;;;;;;4903471;29;20611;-93
2022/05/21 11:47:21;;;;;;;0.10;0.10;;;;;;;;;;4903009;29;20063;-92
2022/05/21 11:50:00;;;;;;;0.10;0.10;;;;;;;;;;4903551;29;20040;-93
2022/05/21 11:52:32;;;;;;;0.10;0.10;;;;;;;;;;4919449;29;20036;-93
2022/05/21 11:55:18;;;;;;;0.20;0.20;;;;;;;;;;4920787;29;20187;-95
2022/05/21 11:58:06;;;;;;;0.10;0.10;;;;;;;;;;4907924;29;20047;-95
2022/05/21 12:00:42;;;;;;;0.10;0.10;;;;;;;;;;4919896;29;20047;-94
2022/05/21 12:03:16;;;;;;;0.10;0.10;;;;;;;;;;4889950;29;20551;-96
2022/05/21 12:05:49;;;;;;;0.20;0.20;;;;;;;;;;4921420;29;20044;-95
2022/05/21 12:08:26;;;;;;;0.10;0.10;;;;;;;;;;4904529;29;20043;-96
2022/05/21 12:11:04;;;;;;;0.10;0.10;;;;;;;;;;4904712;29;20223;-95
2022/05/21 12:13:40;;;;;;;0.20;0.20;;;;;;;;;;4904446;29;20044;-95
2022/05/21 12:16:21;;;;;;;0.10;0.10;;;;;;;;;;4904477;29;20086;-95
2022/05/21 12:18:48;;;;;;;0.10;0.10;;;;;;;;;;4906336;29;20465;-95
2022/05/21 12:21:43;;;;;;;0.10;0.10;;;;;;;;;;4889110;29;20100;-95
2022/05/21 12:24:09;;;;;;;0.75;0.75;;;;;;;;;;4903000;29;20051;-95
2022/05/21 12:26:36;;;;;;;0.20;0.20;;;;;;;;;;4920297;29;20044;-95
2022/05/21 12:29:02;;;;;;;0.10;0.10;;;;;;;;;;4888989;29;20086;-95
2022/05/21 12:31:30;;;;;;;0.35;0.20;;;;;;;;;;4904774;29;20048;-95
2022/05/21 12:34:00;;;;;;;0.10;0.10;;;;;;;;;;4888818;29;20143;-96
2022/05/21 12:36:45;;;;;;;0.10;0.10;;;;;;;;;;4904610;29;20179;-96
2022/05/21 12:39:12;;;;;;;0.10;0.10;;;;;;;;;;4905186;29;20031;-96
2022/05/21 12:41:39;;;;;;;0.15;0.15;;;;;;;;;;4889209;29;20051;-95
2022/05/21 12:47:49;;;;;;;0.10;0.10;;;;;;;;;;4872514;29;20049;-96
2022/05/21 14:56:51;;;;;;;0.10;0.10;;;;;;;;;;6103126;22;4166796;-91
2022/05/21 14:59:16;;;;;;;0.10;0.10;;;;;;;;;;6206363;22;20019;-91
2022/05/21 15:01:43;;;;;;;0.10;0.10;;;;;;;;;;6206362;22;20457;-90
2022/05/21 15:04:17;;;;;;;0.10;0.10;;;;;;;;;;6181267;23;20190;-90
2022/05/21 15:06:44;;;;;;;0.20;0.20;;;;;;;;;;6176686;23;20008;-91
2022/05/21 15:09:10;;;;;;;0.10;0.10;;;;;;;;;;6201395;23;20012;-92
2022/05/21 15:11:38;;;;;;;0.10;0.10;;;;;;;;;;6176729;23;20043;-92
2022/05/21 15:14:04;;;;;;;0.10;0.10;;;;;;;;;;6177047;23;20012;-91
2022/05/21 15:16:30;;;;;;;0.10;0.10;;;;;;;;;;6177271;23;20008;-94
2022/05/21 15:18:59;;;;;;;0.10;0.10;;;;;;;;;;6176633;23;20330;-92
2022/05/21 15:21:28;;;;;;;0.20;0.20;;;;;;;;;;6177888;23;20275;-94
2022/05/21 15:23:58;;;;;;;0.10;0.10;;;;;;;;;;6177107;23;20054;-94
2022/05/21 15:26:24;;;;;;;0.20;0.20;;;;;;;;;;6202396;23;20413;-93
2022/05/21 15:28:50;;;;;;;0.10;0.10;;;;;;;;;;6176370;23;20342;-92
2022/05/21 15:31:16;;;;;;;0.10;0.10;;;;;;;;;;6179666;23;20090;-89
2022/05/21 15:33:42;;;;;;;0.10;0.10;;;;;;;;;;6176516;23;20051;-93
2022/05/21 15:36:10;;;;;;;0.20;0.20;;;;;;;;;;6202156;23;20043;-94
2022/05/21 15:38:36;;;;;;;0.20;0.20;;;;;;;;;;6176975;23;20467;-89
2022/05/21 15:41:02;;;;;;;0.20;0.20;;;;;;;;;;6176531;23;20051;-89
2022/05/21 15:43:28;;;;;;;0.10;0.10;;;;;;;;;;6176202;23;20016;-92
2022/05/21 15:45:55;;;;;;;0.10;0.10;;;;;;;;;;6176950;23;20020;-88
2022/05/21 15:48:21;;;;;;;0.10;0.10;;;;;;;;;;6201352;23;20012;-93
2022/05/21 15:50:47;;;;;;;0.10;0.10;;;;;;;;;;6176275;23;20012;-91
2022/05/21 15:53:13;;;;;;;0.10;0.10;;;;;;;;;;6176457;23;20019;-90
2022/05/21 15:55:41;;;;;;;0.10;0.10;;;;;;;;;;6170347;23;20039;-92
2022/05/21 15:58:07;;;;;;;0.10;0.10;;;;;;;;;;6165070;23;20020;-92
2022/05/21 16:00:33;;;;;;;0.15;0.15;;;;;;;;;;6165320;23;20452;-92
2022/05/21 16:03:03;;;;;;;0.10;0.10;;;;;;;;;;6164599;23;20314;-91
2022/05/21 16:05:31;;;;;;;0.10;0.10;;;;;;;;;;6164586;23;20012;-92
2022/05/21 16:07:57;;;;;;;0.45;0.45;;;;;;;;;;6165070;23;20005;-90
2022/05/21 16:10:23;;;;;;;0.10;0.10;;;;;;;;;;6189087;23;20067;-89
2022/05/21 16:12:52;;;;;;;0.10;0.10;;;;;;;;;;6164408;23;20009;-93
2022/05/21 16:15:25;;;;;;;0.10;0.10;;;;;;;;;;6165187;23;20070;-91
2022/05/21 16:17:52;;;;;;;0.43;0.22;;;;;;;;;;6164690;23;20028;-92
2022/05/21 16:20:18;;;;;;;0.10;0.10;;;;;;;;;;6164265;23;20013;-92
2022/05/21 16:22:45;;;;;;;0.10;0.10;;;;;;;;;;6164288;23;20441;-94
2022/05/21 16:25:12;;;;;;;0.20;0.20;;;;;;;;;;6164415;23;20020;-90
2022/05/21 16:27:38;;;;;;;0.10;0.10;;;;;;;;;;6164371;23;20013;-89
2022/05/21 16:30:04;;;;;;;0.63;0.63;;;;;;;;;;6189133;23;20066;-93
2022/05/21 16:32:31;;;;;;;0.10;0.10;;;;;;;;;;6164087;23;20051;-89
2022/05/21 16:34:57;;;;;;;0.10;0.10;;;;;;;;;;6163954;23;20020;-89
2022/05/21 16:37:23;;;;;;;0.10;0.10;;;;;;;;;;6164140;23;20008;-89
2022/05/21 16:39:49;;;;;;;0.10;0.10;;;;;;;;;;6163853;23;20013;-89
2022/05/21 16:42:17;;;;;;;0.10;0.10;;;;;;;;;;6188792;23;20015;-88
2022/05/21 16:44:43;;;;;;;0.10;0.10;;;;;;;;;;6164172;23;20092;-88
2022/05/21 16:47:09;;;;;;;0.20;0.20;;;;;;;;;;6164570;23;20013;-86
2022/05/21 16:49:35;;;;;;;0.10;0.10;;;;;;;;;;6164231;23;20088;-87
2022/05/21 16:52:01;;;;;;;0.10;0.10;;;;;;;;;;6213876;23;20021;-92
2022/05/21 16:54:29;;;;;;;0.10;0.10;;;;;;;;;;6188778;23;20092;-91
2022/05/21 16:56:55;;;;;;;0.28;0.28;;;;;;;;;;6194159;23;20107;-91
2022/05/21 16:59:24;;;;;;;0.28;0.28;;;;;;;;;;6194276;23;20042;-94
2022/05/21 17:01:50;;;;;;;0.10;0.10;;;;;;;;;;6169854;23;20043;-94
2022/05/21 17:04:19;;;;;;;0.10;0.10;;;;;;;;;;6170023;23;20012;-95
2022/05/21 17:06:46;;;;;;;0.20;0.20;;;;;;;;;;6170503;23;20401;-94
2022/05/21 17:09:13;;;;;;;2.95;0.50;;;;;;;;;;6170186;23;20044;-93
2022/05/21 17:11:40;;;;;;;0.10;0.10;;;;;;;;;;6174002;23;20008;-93
2022/05/21 17:14:12;;;;;;;0.10;0.10;;;;;;;;;;6177787;23;20044;-94
2022/05/21 17:16:41;;;;;;;0.30;0.30;;;;;;;;;;6194153;23;20031;-95
2022/05/21 17:19:11;;;;;;;0.20;0.20;;;;;;;;;;6195338;23;20062;-91
2022/05/21 17:21:40;;;;;;;0.10;0.10;;;;;;;;;;6193540;23;20345;-92
2022/05/21 17:24:06;;;;;;;0.10;0.10;;;;;;;;;;6170005;23;20027;-96
2022/05/21 17:26:34;;;;;;;0.10;0.10;;;;;;;;;;6170706;23;20016;-96
2022/05/21 17:31:51;;;;;;;0.10;0.10;;;;;;;;;;6224671;23;20443;-96
2022/05/21 17:34:17;;;;;;;0.10;0.10;;;;;;;;;;6170171;23;20012;-95
2022/05/21 17:36:43;;;;;;;0.10;0.10;;;;;;;;;;6194500;23;20364;-96
2022/05/21 17:39:09;;;;;;;0.10;0.10;;;;;;;;;;6170197;23;20516;-96
2022/05/21 17:41:35;;;;;;;0.10;0.10;;;;;;;;;;6169537;23;20012;-96
2022/05/21 17:44:02;;;;;;;0.10;0.10;;;;;;;;;;6169581;23;20172;-89
2022/05/21 17:46:30;;;;;;;0.10;0.10;;;;;;;;;;6193742;23;20016;-94
2022/05/21 17:48:56;;;;;;;0.13;0.13;;;;;;;;;;6170225;23;20012;-93
2022/05/21 17:51:22;;;;;;;0.10;0.10;;;;;;;;;;6169799;23;20012;-92
2022/05/21 17:53:49;;;;;;;0.10;0.10;;;;;;;;;;6193464;23;20362;-91
2022/05/21 17:56:17;;;;;;;0.10;0.10;;;;;;;;;;6168593;23;20016;-91
2022/05/21 17:58:46;;;;;;;0.10;0.10;;;;;;;;;;6169584;23;20012;-96
2022/05/21 18:01:17;;;;;;;0.10;0.10;;;;;;;;;;6170503;23;20012;-95
2022/05/21 18:03:43;;;;;;;0.10;0.10;;;;;;;;;;6169736;23;20111;-96
2022/05/21 18:06:15;;;;;;;0.10;0.10;;;;;;;;;;6171080;23;20013;-96
2022/05/21 18:08:41;;;;;;;0.15;0.15;;;;;;;;;;6169304;23;20487;-92
2022/05/21 18:11:07;;;;;;;0.20;0.20;;;;;;;;;;6168410;23;20020;-91
2022/05/21 18:13:34;;;;;;;0.10;0.10;;;;;;;;;;6167850;23;20087;-92
2022/05/21 18:21:35;;;;;;;0.10;0.10;;;;;;;;;;6244286;23;20012;-92
2022/05/21 18:24:01;;;;;;;0.20;0.20;;;;;;;;;;6194390;23;20023;-90
2022/05/21 18:26:27;;;;;;;0.10;0.10;;;;;;;;;;6193285;23;20012;-91
2022/05/21 18:28:53;;;;;;;0.10;0.10;;;;;;;;;;6193237;23;20031;-92
2022/05/21 18:31:21;;;;;;;0.10;0.10;;;;;;;;;;6193512;23;20012;-92
2022/05/21 18:33:51;;;;;;;0.10;0.10;;;;;;;;;;6194070;23;20332;-94
2022/05/21 18:36:17;;;;;;;0.10;0.10;;;;;;;;;;6193516;23;20012;-92
2022/05/21 18:38:43;;;;;;;0.10;0.10;;;;;;;;;;6218882;23;20015;-93
2022/05/21 18:41:29;;;;;;;0.10;0.10;;;;;;;;;;6218685;23;20020;-94
2022/05/21 18:43:55;;;;;;;0.20;0.20;;;;;;;;;;6215379;23;20013;-93
2022/05/21 18:46:26;;;;;;;0.10;0.10;;;;;;;;;;6194088;23;20016;-92
2022/05/21 18:48:52;;;;;;;0.10;0.10;;;;;;;;;;6193881;23;20284;-93
2022/05/21 18:51:18;;;;;;;0.10;0.10;;;;;;;;;;6193711;23;20210;-95
2022/05/21 18:53:47;;;;;;;0.10;0.10;;;;;;;;;;6193830;23;20016;-91
2022/05/21 18:56:14;;;;;;;0.10;0.10;;;;;;;;;;6200676;23;20023;-96
2022/05/21 18:58:42;;;;;;;0.10;0.10;;;;;;;;;;6192982;23;20019;-93
2022/05/21 19:01:08;;;;;;;0.10;0.10;;;;;;;;;;6193231;23;20008;-91
2022/05/21 19:03:34;;;;;;;0.22;0.22;;;;;;;;;;6193365;23;20045;-92
2022/05/21 19:06:00;;;;;;;0.20;0.20;;;;;;;;;;6192952;23;20020;-92
2022/05/21 19:08:29;;;;;;;0.10;0.10;;;;;;;;;;6193297;23;20154;-91
2022/05/21 19:10:57;;;;;;;0.20;0.20;;;;;;;;;;6193149;23;20012;-92
2022/05/21 19:13:25;;;;;;;0.20;0.20;;;;;;;;;;6192958;23;20016;-92